createdAt,value
2022-12-31T00:00:10.161Z,1.00
2022-12-31T00:02:37.593Z,0.70
2022-12-31T00:05:05.426Z,1.40
2022-12-31T00:10:03.728Z,1.03
2022-12-31T00:12:31.011Z,1.00
2022-12-31T00:14:58.258Z,1.77
2022-12-31T00:17:25.494Z,1.20
2022-12-31T00:19:52.825Z,0.90
2022-12-31T00:22:20.205Z,0.80
2022-12-31T00:24:47.653Z,0.80
2022-12-31T00:27:15.302Z,1.30
2022-12-31T00:29:42.879Z,1.23
2022-12-31T00:32:10.249Z,1.07
2022-12-31T00:34:37.451Z,0.97
2022-12-31T00:37:04.937Z,0.77
2022-12-31T00:39:32.261Z,1.20
2022-12-31T00:41:59.915Z,2.97
2022-12-31T00:44:27.227Z,4.07
2022-12-31T00:46:54.842Z,1.27
2022-12-31T00:49:22.120Z,1.10
2022-12-31T00:51:49.387Z,1.10
2022-12-31T00:54:16.691Z,1.30
2022-12-31T00:56:43.911Z,0.80
2022-12-31T00:59:11.355Z,1.00
2022-12-31T01:01:40.902Z,0.80
2022-12-31T01:04:15.523Z,1.90
2022-12-31T01:06:43.944Z,0.70
2022-12-31T01:09:14.962Z,1.40
2022-12-31T01:12:58.340Z,0.70
2022-12-31T01:15:25.695Z,1.90
2022-12-31T01:17:53.034Z,0.87
2022-12-31T01:20:20.263Z,0.93
2022-12-31T01:22:50.194Z,1.10
2022-12-31T01:25:17.587Z,0.60
2022-12-31T01:27:45.135Z,0.87
2022-12-31T01:30:13.031Z,0.80
2022-12-31T01:32:40.266Z,0.60
2022-12-31T01:35:07.976Z,1.20
2022-12-31T01:37:35.318Z,1.60
2022-12-31T01:40:02.626Z,0.60
2022-12-31T01:42:29.978Z,0.50
2022-12-31T01:44:57.472Z,0.50
2022-12-31T01:47:42.594Z,0.83
2022-12-31T01:50:20.729Z,0.30
2022-12-31T01:52:55.651Z,0.30
2022-12-31T01:55:35.326Z,0.87
2022-12-31T01:58:21.372Z,0.33
2022-12-31T02:00:49.836Z,0.30
2022-12-31T02:03:17.416Z,0.60
2022-12-31T02:06:04.225Z,0.70
2022-12-31T02:08:35.734Z,0.70
2022-12-31T02:11:30.157Z,0.67
2022-12-31T02:14:04.234Z,0.50
2022-12-31T02:17:00.010Z,0.57
2022-12-31T02:20:13.751Z,0.90
2022-12-31T02:23:05.723Z,0.50
2022-12-31T02:26:10.973Z,0.60
2022-12-31T02:29:11.779Z,0.57
2022-12-31T02:32:21.555Z,0.73
2022-12-31T02:34:56.800Z,2.13
2022-12-31T02:37:29.100Z,1.07
2022-12-31T02:39:57.500Z,0.50
2022-12-31T02:42:40.597Z,0.60
2022-12-31T02:45:13.123Z,0.90
2022-12-31T02:48:18.872Z,0.60
2022-12-31T02:51:36.734Z,0.87
2022-12-31T02:54:31.073Z,1.13
2022-12-31T02:57:22.370Z,1.13
2022-12-31T03:00:23.433Z,1.53
2022-12-31T03:02:53.276Z,0.53
2022-12-31T03:05:29.720Z,1.77
2022-12-31T03:08:03.758Z,0.70
2022-12-31T03:10:32.029Z,1.40
2022-12-31T03:12:59.805Z,1.37
2022-12-31T03:15:34.380Z,0.87
2022-12-31T03:18:12.077Z,0.63
2022-12-31T03:21:08.157Z,0.67
2022-12-31T03:23:43.125Z,0.67
2022-12-31T03:26:12.937Z,0.47
2022-12-31T03:28:48.201Z,0.50
2022-12-31T03:31:16.473Z,0.33
2022-12-31T03:33:44.151Z,0.57
2022-12-31T03:36:15.323Z,0.60
2022-12-31T03:38:42.949Z,1.83
2022-12-31T03:41:11.665Z,0.50
2022-12-31T03:43:39.499Z,1.03
2022-12-31T03:46:07.046Z,1.70
2022-12-31T03:48:34.376Z,0.47
2022-12-31T03:51:01.671Z,0.43
2022-12-31T03:53:28.999Z,0.27
2022-12-31T03:55:56.436Z,0.40
2022-12-31T03:58:23.880Z,0.77
2022-12-31T04:00:51.301Z,1.33
2022-12-31T04:03:18.862Z,0.77
2022-12-31T04:05:52.889Z,2.13
2022-12-31T04:08:20.173Z,0.50
2022-12-31T04:10:48.170Z,0.77
2022-12-31T04:13:15.529Z,1.27
2022-12-31T04:15:42.928Z,0.90
2022-12-31T04:18:10.299Z,0.47
2022-12-31T04:20:37.489Z,1.03
2022-12-31T04:23:04.811Z,0.83
2022-12-31T04:25:32.306Z,0.93
2022-12-31T04:27:59.501Z,1.13
2022-12-31T04:30:26.841Z,0.93
2022-12-31T04:32:54.216Z,0.60
2022-12-31T04:35:21.501Z,1.27
2022-12-31T04:37:48.659Z,2.10
2022-12-31T04:40:16.149Z,0.73
2022-12-31T04:42:45.683Z,0.63
2022-12-31T04:45:12.892Z,1.10
2022-12-31T04:47:40.118Z,2.13
2022-12-31T04:50:08.049Z,2.40
2022-12-31T04:52:40.491Z,1.43
2022-12-31T04:55:10.431Z,1.30
2022-12-31T04:57:37.680Z,1.37
2022-12-31T05:00:05.802Z,0.97
2022-12-31T05:02:33.070Z,1.37
2022-12-31T05:05:00.419Z,1.03
2022-12-31T05:07:27.760Z,0.77
2022-12-31T05:09:55.164Z,1.90
2022-12-31T05:12:22.475Z,2.10
2022-12-31T05:14:49.559Z,1.13
2022-12-31T05:17:16.877Z,2.10
2022-12-31T05:19:44.419Z,1.70
2022-12-31T05:22:30.016Z,2.00
2022-12-31T05:24:59.650Z,2.10
2022-12-31T05:27:28.580Z,1.30
2022-12-31T05:29:55.920Z,2.83
2022-12-31T05:32:23.090Z,1.33
2022-12-31T05:34:50.254Z,2.10
2022-12-31T05:37:20.560Z,2.50
2022-12-31T05:39:47.914Z,2.10
2022-12-31T05:42:15.151Z,1.33
2022-12-31T05:44:42.323Z,1.70
2022-12-31T05:47:09.659Z,0.97
2022-12-31T05:49:36.903Z,1.27
2022-12-31T05:52:04.504Z,3.27
2022-12-31T05:54:31.887Z,1.87
2022-12-31T05:56:59.964Z,2.20
2022-12-31T05:59:27.326Z,2.23
2022-12-31T06:01:54.683Z,1.17
2022-12-31T06:04:21.839Z,1.30
2022-12-31T06:06:49.470Z,2.00
2022-12-31T06:09:20.180Z,1.53
2022-12-31T06:11:47.752Z,2.43
2022-12-31T06:14:15.049Z,1.70
2022-12-31T06:16:43.090Z,2.30
2022-12-31T06:19:10.777Z,2.33
2022-12-31T06:21:38.235Z,1.27
2022-12-31T06:24:05.974Z,1.07
2022-12-31T06:26:33.282Z,1.53
2022-12-31T06:29:00.457Z,2.00
2022-12-31T06:31:27.838Z,1.43
2022-12-31T06:33:55.381Z,2.80
2022-12-31T06:36:22.934Z,1.97
2022-12-31T06:38:50.388Z,1.60
2022-12-31T06:41:18.883Z,2.93
2022-12-31T06:43:46.798Z,1.30
2022-12-31T06:46:17.788Z,5.90
2022-12-31T06:48:45.659Z,1.33
2022-12-31T06:51:20.568Z,2.77
2022-12-31T06:53:50.248Z,2.20
2022-12-31T06:56:55.741Z,1.73
2022-12-31T06:59:29.549Z,2.13
2022-12-31T07:02:38.590Z,2.77
2022-12-31T07:05:33.514Z,3.77
2022-12-31T07:08:30.183Z,2.43
2022-12-31T07:11:21.277Z,1.73
2022-12-31T07:14:14.789Z,1.70
2022-12-31T07:17:02.948Z,1.67
2022-12-31T07:20:08.604Z,1.37
2022-12-31T07:22:36.208Z,3.33
2022-12-31T07:25:04.574Z,1.77
2022-12-31T07:28:13.467Z,2.07
2022-12-31T07:31:02.459Z,2.17
2022-12-31T07:33:50.381Z,1.90
2022-12-31T07:36:24.248Z,2.67
2022-12-31T07:39:15.010Z,1.33
2022-12-31T07:41:54.891Z,1.57
2022-12-31T07:44:52.582Z,2.07
2022-12-31T07:47:26.905Z,1.50
2022-12-31T07:49:55.441Z,2.23
2022-12-31T07:52:23.449Z,2.03
2022-12-31T07:54:51.081Z,2.50
2022-12-31T07:57:20.636Z,1.60
2022-12-31T08:00:09.631Z,1.43
2022-12-31T08:03:38.065Z,3.27
2022-12-31T08:06:18.035Z,1.50
2022-12-31T08:09:23.414Z,2.63
2022-12-31T08:11:58.981Z,1.40
2022-12-31T08:14:28.385Z,1.57
2022-12-31T08:17:04.993Z,2.03
2022-12-31T08:19:33.674Z,1.60
2022-12-31T08:22:42.565Z,3.53
2022-12-31T08:25:38.955Z,3.77
2022-12-31T08:28:26.308Z,2.30
2022-12-31T08:31:11.316Z,2.10
2022-12-31T08:34:16.144Z,2.50
2022-12-31T08:37:00.808Z,3.37
2022-12-31T08:39:56.978Z,1.53
2022-12-31T08:43:15.690Z,1.37
2022-12-31T08:45:51.719Z,1.80
2022-12-31T08:48:46.088Z,2.07
2022-12-31T08:51:20.898Z,2.50
2022-12-31T08:53:49.283Z,1.70
2022-12-31T08:56:50.838Z,1.77
2022-12-31T08:59:43.831Z,2.23
2022-12-31T09:02:30.903Z,1.87
2022-12-31T09:05:26.262Z,2.83
2022-12-31T09:08:21.022Z,2.20
2022-12-31T09:11:03.701Z,2.33
2022-12-31T09:14:01.555Z,2.27
2022-12-31T09:16:53.973Z,2.93
2022-12-31T09:19:21.361Z,3.43
2022-12-31T09:21:48.939Z,1.77
2022-12-31T09:24:17.262Z,2.57
2022-12-31T09:27:00.808Z,2.20
2022-12-31T09:30:01.928Z,1.37
2022-12-31T09:32:41.611Z,2.40
2022-12-31T09:35:37.079Z,2.80
2022-12-31T09:38:24.180Z,3.33
2022-12-31T09:41:24.424Z,3.10
2022-12-31T09:44:25.539Z,1.70
2022-12-31T09:47:33.762Z,3.53
2022-12-31T09:50:26.145Z,2.43
2022-12-31T09:53:19.222Z,2.60
2022-12-31T09:55:53.467Z,3.40
2022-12-31T09:59:06.867Z,3.63
2022-12-31T10:02:02.710Z,2.63
2022-12-31T10:04:52.510Z,3.03
2022-12-31T10:07:55.874Z,3.30
2022-12-31T10:11:05.635Z,2.97
2022-12-31T10:13:41.653Z,2.80
2022-12-31T10:16:54.332Z,4.80
2022-12-31T10:19:46.252Z,3.27
2022-12-31T10:23:07.557Z,2.53
2022-12-31T10:26:20.445Z,2.67
2022-12-31T10:29:14.098Z,3.70
2022-12-31T10:32:04.281Z,3.37
2022-12-31T10:35:14.209Z,2.93
2022-12-31T10:38:18.723Z,2.90
2022-12-31T10:41:17.479Z,2.73
2022-12-31T10:44:27.435Z,3.73
2022-12-31T10:47:33.145Z,3.03
2022-12-31T10:50:21.667Z,3.07
2022-12-31T10:53:41.838Z,2.80
2022-12-31T10:56:42.145Z,1.57
2022-12-31T10:59:35.239Z,3.37
2022-12-31T11:02:47.609Z,3.53
2022-12-31T11:05:43.756Z,2.80
2022-12-31T11:08:28.882Z,2.37
2022-12-31T11:11:14.524Z,2.23
2022-12-31T11:13:54.994Z,2.73
2022-12-31T11:17:09.332Z,3.63
2022-12-31T11:20:20.014Z,2.50
2022-12-31T11:23:10.195Z,2.97
2022-12-31T11:26:13.556Z,3.27
2022-12-31T11:28:54.823Z,4.33
2022-12-31T11:32:01.909Z,2.57
2022-12-31T11:34:37.899Z,3.97
2022-12-31T11:37:18.011Z,3.73
2022-12-31T11:40:22.132Z,2.87
2022-12-31T11:42:55.218Z,2.57
2022-12-31T11:45:56.172Z,3.67
2022-12-31T11:49:00.928Z,2.90
2022-12-31T11:51:50.676Z,2.83
2022-12-31T11:54:37.399Z,3.13
2022-12-31T11:57:20.705Z,3.87
2022-12-31T11:59:48.525Z,2.13
2022-12-31T12:02:27.043Z,5.37
2022-12-31T12:05:00.873Z,3.23
2022-12-31T12:07:32.884Z,3.20
2022-12-31T12:10:22.270Z,3.13
2022-12-31T12:12:50.624Z,1.83
2022-12-31T12:15:24.187Z,3.93
2022-12-31T12:17:56.803Z,6.47
2022-12-31T12:20:32.801Z,3.17
2022-12-31T12:23:03.471Z,13.17
2022-12-31T12:25:42.645Z,18.43
2022-12-31T12:28:44.349Z,4.37
2022-12-31T12:31:23.121Z,3.77
2022-12-31T12:33:52.472Z,3.30
2022-12-31T12:36:21.919Z,2.63
2022-12-31T12:39:00.112Z,4.20
2022-12-31T12:41:28.054Z,3.67
2022-12-31T12:44:15.705Z,5.33
2022-12-31T12:46:50.039Z,3.23
2022-12-31T12:49:29.665Z,3.37
2022-12-31T12:52:36.872Z,3.97
2022-12-31T12:55:17.237Z,2.43
2022-12-31T12:57:49.965Z,5.33
2022-12-31T13:00:47.652Z,2.97
2022-12-31T13:04:32.606Z,10.33
2022-12-31T13:07:15.609Z,3.37
2022-12-31T13:09:45.775Z,3.70
2022-12-31T13:12:24.695Z,14.47
2022-12-31T13:15:06.065Z,4.90
2022-12-31T13:18:02.200Z,3.67
2022-12-31T13:20:38.442Z,2.23
2022-12-31T13:23:39.435Z,4.63
2022-12-31T13:26:34.104Z,4.80
2022-12-31T13:29:04.508Z,2.77
2022-12-31T13:31:40.448Z,3.30
2022-12-31T13:34:18.880Z,4.47
2022-12-31T13:36:50.745Z,3.17
2022-12-31T13:39:47.292Z,2.60
2022-12-31T13:42:21.078Z,3.63
2022-12-31T13:45:02.666Z,3.67
2022-12-31T13:47:41.630Z,4.83
2022-12-31T13:50:29.668Z,5.53
2022-12-31T13:52:56.874Z,3.43
2022-12-31T13:55:47.454Z,5.70
2022-12-31T13:58:36.172Z,6.17
2022-12-31T14:01:33.714Z,3.60
2022-12-31T14:04:16.061Z,4.13
2022-12-31T14:06:58.694Z,3.33
2022-12-31T14:09:30.694Z,4.50
2022-12-31T14:12:32.044Z,4.07
2022-12-31T14:15:30.620Z,3.93
2022-12-31T14:18:33.796Z,4.70
2022-12-31T14:21:24.417Z,26.50
2022-12-31T14:24:18.412Z,9.53
2022-12-31T14:26:53.057Z,4.77
2022-12-31T14:29:43.834Z,5.90
2022-12-31T14:32:43.022Z,4.30
2022-12-31T14:35:40.970Z,6.20
2022-12-31T14:38:32.444Z,4.50
2022-12-31T14:41:36.632Z,6.93
2022-12-31T14:44:18.932Z,5.77
2022-12-31T14:47:01.261Z,3.70
2022-12-31T14:49:56.193Z,4.50
2022-12-31T14:52:34.840Z,5.47
2022-12-31T14:55:25.146Z,5.60
2022-12-31T14:58:26.598Z,5.77
2022-12-31T15:00:56.947Z,3.47
2022-12-31T15:03:36.323Z,4.57
2022-12-31T15:06:24.197Z,4.10
2022-12-31T15:09:52.828Z,7.37
2022-12-31T15:13:07.937Z,4.07
2022-12-31T15:15:59.748Z,3.40
2022-12-31T15:19:04.834Z,4.73
2022-12-31T15:21:56.612Z,3.33
2022-12-31T15:24:27.983Z,4.30
2022-12-31T15:27:00.618Z,5.03
2022-12-31T15:29:43.403Z,4.30
2022-12-31T15:32:36.006Z,3.80
2022-12-31T15:35:30.562Z,4.00
2022-12-31T15:38:17.348Z,3.93
2022-12-31T15:40:52.847Z,6.00
2022-12-31T15:43:56.665Z,6.43
2022-12-31T15:46:34.279Z,5.70
2022-12-31T15:49:15.881Z,4.13
2022-12-31T15:52:15.805Z,3.73
2022-12-31T15:54:57.283Z,3.90
2022-12-31T15:57:39.935Z,4.20
2022-12-31T16:00:22.435Z,5.37
2022-12-31T16:02:55.626Z,3.90
2022-12-31T16:05:27.128Z,6.73
2022-12-31T16:07:59.876Z,7.20
2022-12-31T16:10:33.009Z,4.87
2022-12-31T16:13:00.877Z,5.27
2022-12-31T16:15:32.969Z,6.63
2022-12-31T16:18:05.323Z,4.60
2022-12-31T16:20:34.892Z,5.90
2022-12-31T16:23:04.695Z,5.47
2022-12-31T16:25:33.964Z,3.70
2022-12-31T16:28:03.950Z,3.33
2022-12-31T16:30:36.628Z,4.70
2022-12-31T16:33:07.389Z,4.50
2022-12-31T16:35:38.137Z,4.23
2022-12-31T16:38:16.827Z,3.27
2022-12-31T16:41:11.499Z,4.90
2022-12-31T16:43:41.764Z,3.93
2022-12-31T16:46:32.276Z,4.80
2022-12-31T16:49:07.484Z,3.93
2022-12-31T16:51:37.692Z,5.13
2022-12-31T16:54:15.390Z,4.97
2022-12-31T16:56:46.203Z,4.10
2022-12-31T16:59:35.386Z,4.27
2022-12-31T17:02:15.369Z,4.13
2022-12-31T17:04:55.342Z,4.17
2022-12-31T17:07:32.521Z,6.10
2022-12-31T17:10:08.564Z,4.23
2022-12-31T17:15:45.588Z,5.70
2022-12-31T17:18:25.733Z,5.23
2022-12-31T17:20:55.406Z,10.50
2022-12-31T17:23:34.979Z,5.27
2022-12-31T17:26:15.498Z,4.90
2022-12-31T17:28:47.602Z,5.07
2022-12-31T17:31:38.528Z,6.83
2022-12-31T17:34:34.434Z,6.60
2022-12-31T17:37:30.330Z,6.07
2022-12-31T17:40:40.573Z,5.33
2022-12-31T17:42:49.477Z,6.37
2022-12-31T17:45:22.529Z,4.73
2022-12-31T17:47:53.911Z,6.10
2022-12-31T17:50:28.697Z,5.83
2022-12-31T17:53:13.321Z,6.93
2022-12-31T17:55:42.543Z,5.37
2022-12-31T17:58:36.671Z,3.77
2022-12-31T18:01:09.008Z,6.33
2022-12-31T18:03:36.743Z,5.60
2022-12-31T18:06:05.626Z,6.03
2022-12-31T18:08:32.784Z,6.20
2022-12-31T18:11:00.165Z,5.97
2022-12-31T18:13:28.182Z,7.07
2022-12-31T18:15:55.810Z,7.27
2022-12-31T18:18:30.328Z,5.97
2022-12-31T18:21:01.820Z,5.63
2022-12-31T18:23:42.796Z,4.87
2022-12-31T18:26:19.559Z,8.47
2022-12-31T18:28:48.255Z,7.00
2022-12-31T18:31:31.294Z,8.13
2022-12-31T18:33:59.818Z,6.63
2022-12-31T18:36:30.204Z,5.40
2022-12-31T18:38:57.378Z,9.47
2022-12-31T18:41:29.454Z,5.57
2022-12-31T18:43:56.898Z,7.03
2022-12-31T18:46:25.464Z,5.87
2022-12-31T18:48:52.680Z,7.57
2022-12-31T18:51:29.608Z,14.73
2022-12-31T18:54:01.879Z,13.67
2022-12-31T18:56:29.288Z,6.27
2022-12-31T18:58:56.648Z,7.20
2022-12-31T19:01:40.385Z,5.33
2022-12-31T19:04:26.583Z,7.13
2022-12-31T19:06:55.424Z,6.30
2022-12-31T19:12:14.605Z,5.60
2022-12-31T19:14:41.799Z,5.37
2022-12-31T19:19:35.156Z,8.27
2022-12-31T19:22:03.044Z,7.07
2022-12-31T19:24:30.731Z,5.50
2022-12-31T19:26:58.007Z,7.47
2022-12-31T19:29:28.124Z,6.97
2022-12-31T19:31:55.801Z,6.97
2022-12-31T19:34:23.117Z,5.43
2022-12-31T19:36:50.392Z,6.27
2022-12-31T19:39:20.853Z,6.23
2022-12-31T19:41:58.912Z,7.50
2022-12-31T19:44:27.341Z,5.50
2022-12-31T19:46:54.590Z,7.80
2022-12-31T19:49:22.021Z,6.57
2022-12-31T19:51:50.523Z,6.60
2022-12-31T19:54:17.858Z,6.27
2022-12-31T19:56:45.021Z,8.27
2022-12-31T19:59:12.382Z,5.73
2022-12-31T20:01:39.808Z,7.53
2022-12-31T20:04:07.407Z,4.83
2022-12-31T20:06:34.896Z,7.07
2022-12-31T20:09:03.709Z,5.97
2022-12-31T20:11:31.067Z,4.27
2022-12-31T20:13:58.552Z,6.47
2022-12-31T20:16:34.241Z,5.83
2022-12-31T20:19:01.544Z,4.63
2022-12-31T20:21:30.035Z,6.27
2022-12-31T20:23:57.624Z,7.23
2022-12-31T20:26:26.003Z,9.43
2022-12-31T20:28:53.893Z,6.93
2022-12-31T20:31:25.145Z,7.63
2022-12-31T20:33:56.883Z,8.60
2022-12-31T20:36:24.452Z,10.30
2022-12-31T20:38:51.954Z,7.67
2022-12-31T20:41:22.660Z,12.73
2022-12-31T20:43:51.050Z,10.07
2022-12-31T20:46:25.259Z,8.10
2022-12-31T20:48:58.753Z,7.97
2022-12-31T20:51:28.616Z,10.73
2022-12-31T20:54:00.481Z,7.53
2022-12-31T20:56:31.497Z,7.20
2022-12-31T20:58:59.679Z,7.47
2022-12-31T21:01:41.762Z,7.20
2022-12-31T21:04:15.307Z,6.83
2022-12-31T21:06:42.753Z,7.50
2022-12-31T21:09:10.340Z,10.30
2022-12-31T21:11:56.305Z,6.43
2022-12-31T21:14:23.554Z,5.53
2022-12-31T21:16:51.171Z,9.10
2022-12-31T21:19:18.409Z,6.80
2022-12-31T21:21:45.726Z,8.40
2022-12-31T21:24:12.942Z,6.50
2022-12-31T21:26:40.509Z,7.37
2022-12-31T21:29:07.767Z,9.30
2022-12-31T21:31:35.038Z,4.73
2022-12-31T21:34:02.421Z,6.17
2022-12-31T21:36:29.780Z,7.13
2022-12-31T21:38:57.335Z,15.50
2022-12-31T21:41:44.105Z,11.57
2022-12-31T21:44:11.289Z,8.80
2022-12-31T21:46:38.775Z,6.63
2022-12-31T21:49:06.194Z,5.73
2022-12-31T21:51:53.418Z,7.23
2022-12-31T21:54:40.672Z,6.80
2022-12-31T21:57:08.714Z,6.17
2022-12-31T22:00:24.142Z,8.40
2022-12-31T22:03:15.676Z,5.43
2022-12-31T22:05:47.600Z,5.97
2022-12-31T22:08:14.728Z,5.47
2022-12-31T22:10:48.830Z,5.37
2022-12-31T22:13:19.532Z,12.73
2022-12-31T22:15:52.392Z,10.80
2022-12-31T22:18:20.327Z,10.33
2022-12-31T22:20:47.640Z,9.90
2022-12-31T22:23:15.179Z,7.30
2022-12-31T22:25:42.327Z,8.23
2022-12-31T22:28:37.508Z,6.53
2022-12-31T22:30:56.868Z,6.13
2022-12-31T22:33:24.080Z,6.27
2022-12-31T22:36:04.047Z,8.80
2022-12-31T22:38:33.084Z,5.43
2022-12-31T22:41:09.126Z,5.30
2022-12-31T22:43:40.462Z,7.83
2022-12-31T22:46:12.502Z,9.27
2022-12-31T22:48:40.940Z,8.63
2022-12-31T22:51:10.683Z,5.43
2022-12-31T22:53:39.902Z,8.47
2022-12-31T22:56:08.495Z,6.90
2022-12-31T22:58:36.273Z,10.17
2022-12-31T23:01:14.622Z,28.13
2022-12-31T23:03:42.667Z,76.73
2022-12-31T23:06:10.094Z,160.30
2022-12-31T23:08:37.417Z,115.50
2022-12-31T23:11:09.792Z,109.57
2022-12-31T23:14:01.660Z,101.30
2022-12-31T23:16:48.715Z,119.47
2022-12-31T23:19:35.027Z,81.67
2022-12-31T23:22:21.095Z,51.57
2022-12-31T23:24:48.395Z,46.77
2022-12-31T23:27:15.588Z,47.77
2022-12-31T23:29:47.142Z,43.90
2022-12-31T23:32:19.507Z,30.93
2022-12-31T23:34:47.309Z,31.33
2022-12-31T23:37:15.891Z,28.83
2022-12-31T23:40:03.051Z,28.30
2022-12-31T23:42:32.980Z,25.30
2022-12-31T23:45:00.545Z,19.67
2022-12-31T23:47:27.760Z,20.20
2022-12-31T23:50:14.769Z,19.97
2022-12-31T23:52:42.175Z,18.83
2022-12-31T23:55:10.007Z,36.43
2022-12-31T23:57:37.524Z,24.13
